createdAt,value
2023-03-11T07:03:27.155Z,6.36
2023-03-11T07:06:29.839Z,6.27
2023-03-11T07:09:33.260Z,6.31
2023-03-11T07:12:36.216Z,6.44
2023-03-11T07:15:38.715Z,6.45
2023-03-11T07:18:43.147Z,6.24
2023-03-11T07:21:45.646Z,6.24
2023-03-11T07:24:48.447Z,6.42
2023-03-11T07:27:50.880Z,6.40
2023-03-11T07:30:53.547Z,6.47
2023-03-11T07:33:58.364Z,6.49
2023-03-11T07:37:00.996Z,6.49
2023-03-11T07:40:03.639Z,6.45
2023-03-11T07:43:06.445Z,6.48
2023-03-11T07:46:09.963Z,6.40
2023-03-11T07:49:14.103Z,6.58
2023-03-11T07:52:16.520Z,6.57
2023-03-11T07:55:19.263Z,6.42
2023-03-11T07:58:21.708Z,6.40
2023-03-11T08:01:25.610Z,6.34
2023-03-11T08:04:29.694Z,6.39
2023-03-11T08:07:32.226Z,6.35
2023-03-11T08:10:36.520Z,6.30
2023-03-11T08:13:38.725Z,6.27
2023-03-11T08:16:41.400Z,6.30
2023-03-11T08:19:45.125Z,6.16
2023-03-11T08:22:57.637Z,6.19
2023-03-11T08:26:03.218Z,6.26
2023-03-11T08:29:05.935Z,6.45
2023-03-11T08:32:08.402Z,6.42
2023-03-11T08:35:12.612Z,6.32
2023-03-11T08:38:15.092Z,6.39
2023-03-11T08:41:17.937Z,6.22
2023-03-11T08:44:20.401Z,6.40
2023-03-11T08:47:23.201Z,6.08
2023-03-11T08:50:27.219Z,6.05
2023-03-11T08:53:30.042Z,6.42
2023-03-11T08:56:32.447Z,6.45
2023-03-11T08:59:36.227Z,6.73
2023-03-11T09:02:38.622Z,6.53
2023-03-11T09:05:42.742Z,6.51
2023-03-11T09:08:45.698Z,6.56
2023-03-11T09:11:48.432Z,6.71
2023-03-11T09:14:51.043Z,7.03
2023-03-11T09:17:54.283Z,6.94
2023-03-11T09:20:59.247Z,6.56
2023-03-11T09:24:01.944Z,6.39
2023-03-11T09:27:04.491Z,6.34
2023-03-11T09:30:08.274Z,6.80
2023-03-11T09:33:10.721Z,7.03
2023-03-11T09:36:15.554Z,7.01
2023-03-11T09:39:17.942Z,7.13
2023-03-11T09:42:22.960Z,7.33
2023-03-11T09:45:26.449Z,7.71
2023-03-11T09:48:30.540Z,7.56
2023-03-11T09:51:35.957Z,7.31
2023-03-11T09:54:40.804Z,7.05
2023-03-11T09:57:43.196Z,7.37
2023-03-11T10:00:45.838Z,7.42
2023-03-11T10:03:48.517Z,7.68
2023-03-11T10:06:53.049Z,7.71
2023-03-11T10:09:56.956Z,7.76
2023-03-11T10:13:02.567Z,7.99
2023-03-11T10:16:09.471Z,7.69
2023-03-11T10:19:15.074Z,7.54
2023-03-11T10:22:21.040Z,7.99
2023-03-11T10:25:25.583Z,7.75
2023-03-11T10:28:30.431Z,8.11
2023-03-11T10:31:35.302Z,7.51
2023-03-11T10:34:39.591Z,7.29
2023-03-11T10:37:49.702Z,7.25
2023-03-11T10:40:53.940Z,7.09
2023-03-11T10:44:00.186Z,6.82
2023-03-11T10:47:02.972Z,6.71
2023-03-11T10:50:06.253Z,6.69
2023-03-11T10:53:10.833Z,6.61
2023-03-11T10:56:26.695Z,6.76
2023-03-11T10:59:30.471Z,6.47
2023-03-11T11:02:33.713Z,6.67
